Bow Pilot — S6EN — position and weather

sailwx.info

Track history (hours):
 
Tides and Currents Weather Stations Pressure Air Temp Water Temp Dewpoint Dewpoint Depression Visibility Wind Speed Wind Dir Waves Ship Positions

Bow Pilot

Last reported at 2014-Jul-24 11:22 UTC. Time now 2014-Jul-24 12:19 UTC.
Position N 40°50' E 029°16'.

Length 104 m; draft 5.6 m.

Type: Ship (hazmat cat C). MMSI: 564978000.

Date/timePositionNaut miles runAvg speedWind from/ knotsBaromVisibWave heightAir tempDewpointWater temp
2014-Jul-24 11:22N 40°50' E 029°16'0 0.0
2014-Jul-24 10:28N 40°50' E 029°16'0 0.0
2014-Jul-24 09:28N 40°50' E 029°16'0 0.0
2014-Jul-24 08:28N 40°50' E 029°16'0 0.0
2014-Jul-24 07:22N 40°50' E 029°16'0 0.0
2014-Jul-24 06:22N 40°50' E 029°16'0 0.0
2014-Jul-24 05:28N 40°50' E 029°16'0 0.0
2014-Jul-24 04:28N 40°50' E 029°16'0 0.0
2014-Jul-24 03:28N 40°50' E 029°16'0 0.0
2014-Jul-24 02:28N 40°50' E 029°16'0 0.0
2014-Jul-24 01:28N 40°50' E 029°16'0 0.0
2014-Jul-24 00:28N 40°50' E 029°16'0 0.0
2014-Jul-23 23:22N 40°50' E 029°16'0 0.0
2014-Jul-23 22:28N 40°50' E 029°16'0 0.0
2014-Jul-23 21:16N 40°50' E 029°16'0 0.0
2014-Jul-23 20:28N 40°50' E 029°16'0 0.0
2014-Jul-23 19:28N 40°50' E 029°16'0 0.0
2014-Jul-23 18:28N 40°50' E 029°16'0 0.0
2014-Jul-23 17:28N 40°50' E 029°16'0 0.0
2014-Jul-23 16:30N 40°50' E 029°16'0 0.0
2014-Jul-23 15:30N 40°50' E 029°16'0 0.0
2014-Jul-23 14:33N 40°50' E 029°16'0 0.0
2014-Jul-23 13:33N 40°50' E 029°16'1 0.8
2014-Jul-23 12:33N 40°51' E 029°16'3 2.4
2014-Jul-23 11:18N 40°50' E 029°12'0 0.1
2014-Jul-23 10:30N 40°50' E 029°12'0 0.0
2014-Jul-23 09:30N 40°50' E 029°12'0 0.1
2014-Jul-23 08:30N 40°50' E 029°12'3 3.4
2014-Jul-23 07:34N 40°49' E 029°08'1211.7
2014-Jul-23 06:33N 40°58' E 028°58'2 0.1
2014-Jul-22 15:33N 40°58' E 028°60'1311.2
2014-Jul-22 14:23N 40°45' E 029°02'  
2014-Jul-17 03:08N 36°24' E 014°51'813.8
2014-Jul-17 02:33N 36°25' E 014°41'1313.5
2014-Jul-17 01:33N 36°27' E 014°25'1313.2
2014-Jul-17 00:33N 36°30' E 014°08'1312.8
2014-Jul-16 23:33N 36°33' E 013°53'1312.6
2014-Jul-16 22:33N 36°36' E 013°38'1312.8
2014-Jul-16 21:32N 36°39' E 013°22'1313.1
2014-Jul-16 20:33N 36°41' E 013°06'49513.6
2014-Jul-15 08:18N 40°21' E 003°40'2313.4
2014-Jul-15 06:33N 40°28' E 003°11'1313.3
2014-Jul-15 05:33N 40°33' E 002°55'1313.0
2014-Jul-15 04:33N 40°38' E 002°39'1413.4
2014-Jul-15 03:33N 40°42' E 002°22'1413.6
2014-Jul-15 02:33N 40°47' E 002°05'1413.6
2014-Jul-15 01:33N 40°52' E 001°48'1313.5
2014-Jul-15 00:33N 40°57' E 001°32'1313.5
2014-Jul-14 23:33N 41°01' E 001°15'5 0.5
2014-Jul-14 14:32N 41°06' E 001°14'  
Track history (hours):
 
Tides and Currents Weather Stations Pressure Air Temp Water Temp Dewpoint Dewpoint Depression Visibility Wind Speed Wind Dir Waves Ship Positions

Bow Pilot

Last reported at 2014-Jul-24 11:22 UTC. Time now 2014-Jul-24 12:19 UTC.
Position N 40°50' E 029°16'.

Length 104 m; draft 5.6 m.

Type: Ship (hazmat cat C). MMSI: 564978000.

Date/timePositionNaut miles runAvg speedWind from/ knotsBaromVisibWave heightAir tempDewpointWater temp
2014-Jul-24 11:22N 40°50' E 029°16'0 0.0
2014-Jul-24 10:28N 40°50' E 029°16'0 0.0
2014-Jul-24 09:28N 40°50' E 029°16'0 0.0
2014-Jul-24 08:28N 40°50' E 029°16'0 0.0
2014-Jul-24 07:22N 40°50' E 029°16'0 0.0
2014-Jul-24 06:22N 40°50' E 029°16'0 0.0
2014-Jul-24 05:28N 40°50' E 029°16'0 0.0
2014-Jul-24 04:28N 40°50' E 029°16'0 0.0
2014-Jul-24 03:28N 40°50' E 029°16'0 0.0
2014-Jul-24 02:28N 40°50' E 029°16'0 0.0
2014-Jul-24 01:28N 40°50' E 029°16'0 0.0
2014-Jul-24 00:28N 40°50' E 029°16'0 0.0
2014-Jul-23 23:22N 40°50' E 029°16'0 0.0
2014-Jul-23 22:28N 40°50' E 029°16'0 0.0
2014-Jul-23 21:16N 40°50' E 029°16'0 0.0
2014-Jul-23 20:28N 40°50' E 029°16'0 0.0
2014-Jul-23 19:28N 40°50' E 029°16'0 0.0
2014-Jul-23 18:28N 40°50' E 029°16'0 0.0
2014-Jul-23 17:28N 40°50' E 029°16'0 0.0
2014-Jul-23 16:30N 40°50' E 029°16'0 0.0
2014-Jul-23 15:30N 40°50' E 029°16'0 0.0
2014-Jul-23 14:33N 40°50' E 029°16'0 0.0
2014-Jul-23 13:33N 40°50' E 029°16'1 0.8
2014-Jul-23 12:33N 40°51' E 029°16'3 2.4
2014-Jul-23 11:18N 40°50' E 029°12'0 0.1
2014-Jul-23 10:30N 40°50' E 029°12'0 0.0
2014-Jul-23 09:30N 40°50' E 029°12'0 0.1
2014-Jul-23 08:30N 40°50' E 029°12'3 3.4
2014-Jul-23 07:34N 40°49' E 029°08'1211.7
2014-Jul-23 06:33N 40°58' E 028°58'2 0.1
2014-Jul-22 15:33N 40°58' E 028°60'1311.2
2014-Jul-22 14:23N 40°45' E 029°02'  
2014-Jul-17 03:08N 36°24' E 014°51'813.8
2014-Jul-17 02:33N 36°25' E 014°41'1313.5
2014-Jul-17 01:33N 36°27' E 014°25'1313.2
2014-Jul-17 00:33N 36°30' E 014°08'1312.8
2014-Jul-16 23:33N 36°33' E 013°53'1312.6
2014-Jul-16 22:33N 36°36' E 013°38'1312.8
2014-Jul-16 21:32N 36°39' E 013°22'1313.1
2014-Jul-16 20:33N 36°41' E 013°06'49513.6
2014-Jul-15 08:18N 40°21' E 003°40'2313.4
2014-Jul-15 06:33N 40°28' E 003°11'1313.3
2014-Jul-15 05:33N 40°33' E 002°55'1313.0
2014-Jul-15 04:33N 40°38' E 002°39'1413.4
2014-Jul-15 03:33N 40°42' E 002°22'1413.6
2014-Jul-15 02:33N 40°47' E 002°05'1413.6
2014-Jul-15 01:33N 40°52' E 001°48'1313.5
2014-Jul-15 00:33N 40°57' E 001°32'1313.5
2014-Jul-14 23:33N 41°01' E 001°15'5 0.5
2014-Jul-14 14:32N 41°06' E 001°14'  

Dump ship's entire track history